createdAt,value
2018-09-13T00:02:22.905Z,91.27
2018-09-13T00:04:55.764Z,91.44
2018-09-13T00:07:28.304Z,91.54
2018-09-13T00:10:02.400Z,91.74
2018-09-13T00:12:34.894Z,91.87
2018-09-13T00:15:07.845Z,92.00
2018-09-13T00:17:40.363Z,92.12
2018-09-13T00:20:12.990Z,92.10
2018-09-13T00:22:45.901Z,92.25
2018-09-13T00:25:19.340Z,92.46
2018-09-13T00:27:51.861Z,92.62
2018-09-13T00:30:24.892Z,92.74
2018-09-13T00:32:57.387Z,92.94
2018-09-13T00:35:30.188Z,93.13
2018-09-13T00:38:03.224Z,93.34
2018-09-13T00:40:35.813Z,93.50
2018-09-13T00:43:08.308Z,93.64
2018-09-13T00:45:41.131Z,93.76
2018-09-13T00:48:13.733Z,93.81
2018-09-13T00:50:46.338Z,93.92
2018-09-13T00:53:19.491Z,94.01
2018-09-13T00:55:52.111Z,94.15
2018-09-13T00:58:24.709Z,94.26
2018-09-13T01:01:00.251Z,94.36
2018-09-13T01:03:32.868Z,94.45
2018-09-13T01:06:05.590Z,94.53
2018-09-13T01:08:39.637Z,94.58
2018-09-13T01:11:12.292Z,94.64
2018-09-13T01:13:44.836Z,94.69
2018-09-13T01:16:17.836Z,94.71
2018-09-13T01:18:51.668Z,94.79
2018-09-13T01:21:26.772Z,94.83
2018-09-13T01:24:00.856Z,94.85
2018-09-13T01:26:33.464Z,94.88
2018-09-13T01:29:06.072Z,94.86
2018-09-13T01:31:40.033Z,94.85
2018-09-13T01:34:13.501Z,94.83
2018-09-13T01:36:46.264Z,94.82
2018-09-13T01:39:19.196Z,94.83
2018-09-13T01:41:51.840Z,94.88
2018-09-13T01:44:24.380Z,94.95
2018-09-13T01:46:57.572Z,95.01
2018-09-13T01:49:30.160Z,95.03
2018-09-13T01:52:03.614Z,95.06
2018-09-13T01:54:37.262Z,95.05
2018-09-13T01:57:09.844Z,95.08
2018-09-13T01:59:42.739Z,95.15
2018-09-13T02:02:15.690Z,95.14
2018-09-13T02:04:48.289Z,95.12
2018-09-13T02:07:22.904Z,94.85
2018-09-13T02:09:56.751Z,94.59
2018-09-13T02:12:29.249Z,94.54
2018-09-13T02:15:03.465Z,94.58
2018-09-13T02:17:36.450Z,94.72
2018-09-13T02:20:09.216Z,94.90
2018-09-13T02:22:41.817Z,95.06
2018-09-13T02:25:14.781Z,95.20
2018-09-13T02:27:47.355Z,95.27
2018-09-13T02:30:19.857Z,95.34
2018-09-13T02:32:52.831Z,95.36
2018-09-13T02:35:25.473Z,95.41
2018-09-13T02:37:57.988Z,95.40
2018-09-13T02:40:30.818Z,95.43
2018-09-13T02:43:03.372Z,95.45
2018-09-13T02:45:35.956Z,95.54
2018-09-13T02:48:08.847Z,95.61
2018-09-13T02:50:41.261Z,95.67
2018-09-13T02:53:13.813Z,95.71
2018-09-13T02:55:46.644Z,95.75
2018-09-13T02:58:19.299Z,95.84
2018-09-13T03:00:51.617Z,95.90
2018-09-13T03:03:24.480Z,95.98
2018-09-13T03:05:57.112Z,96.02
2018-09-13T03:08:29.692Z,96.09
2018-09-13T03:11:02.885Z,96.16
2018-09-13T03:13:35.296Z,96.28
2018-09-13T03:16:08.320Z,96.39
2018-09-13T03:18:43.066Z,96.48
2018-09-13T03:21:15.376Z,96.55
2018-09-13T03:23:48.568Z,96.60
2018-09-13T03:26:23.288Z,96.64
2018-09-13T03:28:56.650Z,96.69
2018-09-13T03:31:29.020Z,96.73
2018-09-13T03:34:02.232Z,96.80
2018-09-13T03:36:35.104Z,96.77
2018-09-13T03:39:10.683Z,96.68
2018-09-13T03:41:43.301Z,96.59
2018-09-13T03:44:15.650Z,96.70
2018-09-13T03:46:47.996Z,96.83
2018-09-13T03:49:20.612Z,96.91
2018-09-13T03:51:52.972Z,97.00
2018-09-13T03:54:25.312Z,97.05
2018-09-13T03:56:58.148Z,97.09
2018-09-13T03:59:30.868Z,97.11
2018-09-13T04:02:03.264Z,97.12
2018-09-13T04:04:35.640Z,97.13
2018-09-13T04:07:13.748Z,97.10
2018-09-13T04:09:46.173Z,97.10
2018-09-13T04:12:18.530Z,97.11
2018-09-13T04:14:51.327Z,97.10
2018-09-13T04:17:23.708Z,97.11
2018-09-13T04:19:56.087Z,97.14
2018-09-13T04:22:29.945Z,97.17
2018-09-13T04:25:03.528Z,97.16
2018-09-13T04:27:35.915Z,97.19
2018-09-13T04:30:08.689Z,97.23
2018-09-13T04:32:41.589Z,97.23
2018-09-13T04:35:14.942Z,97.25
2018-09-13T04:37:47.612Z,97.30
2018-09-13T04:40:19.994Z,97.27
2018-09-13T04:42:53.820Z,97.30
2018-09-13T04:45:26.378Z,97.29
2018-09-13T04:47:58.947Z,97.32
2018-09-13T04:50:31.712Z,97.34
2018-09-13T04:53:04.167Z,97.37
2018-09-13T04:55:36.564Z,97.39
2018-09-13T04:58:09.274Z,97.37
2018-09-13T05:00:42.424Z,97.38
2018-09-13T05:03:15.961Z,97.41
2018-09-13T05:05:50.084Z,97.44
2018-09-13T05:08:23.134Z,97.45
2018-09-13T05:10:55.576Z,97.47
2018-09-13T05:13:28.388Z,97.52
2018-09-13T05:16:00.770Z,97.53
2018-09-13T05:18:34.017Z,97.52
2018-09-13T05:21:06.777Z,97.51
2018-09-13T05:23:39.881Z,97.48
2018-09-13T05:26:12.233Z,97.33
2018-09-13T05:28:45.919Z,97.22
2018-09-13T05:31:18.837Z,97.26
2018-09-13T05:33:51.236Z,97.19
2018-09-13T05:36:23.687Z,97.17
2018-09-13T05:38:56.047Z,97.05
2018-09-13T05:41:28.407Z,97.06
2018-09-13T05:44:01.216Z,97.11
2018-09-13T05:46:35.597Z,97.15
2018-09-13T05:49:09.845Z,97.23
2018-09-13T05:51:44.611Z,97.10
2018-09-13T05:54:17.763Z,97.11
2018-09-13T05:56:50.507Z,97.10
2018-09-13T05:59:22.840Z,97.05
2018-09-13T06:01:56.630Z,97.12
2018-09-13T06:04:30.151Z,97.11
2018-09-13T06:07:04.841Z,97.12
2018-09-13T06:09:37.132Z,97.19
2018-09-13T06:12:09.509Z,97.19
2018-09-13T06:14:43.443Z,97.18
2018-09-13T06:17:16.653Z,97.25
2018-09-13T06:19:50.441Z,97.33
2018-09-13T06:22:24.276Z,97.39
2018-09-13T06:24:57.062Z,97.36
2018-09-13T06:27:29.579Z,97.40
2018-09-13T06:30:03.315Z,97.46
2018-09-13T06:32:36.045Z,97.51
2018-09-13T06:35:09.314Z,97.49
2018-09-13T06:37:42.507Z,97.35
2018-09-13T06:40:17.572Z,97.28
2018-09-13T06:42:49.975Z,97.26
2018-09-13T06:45:23.373Z,97.22
2018-09-13T06:47:56.314Z,97.11
2018-09-13T06:50:28.693Z,97.16
2018-09-13T06:53:01.136Z,97.23
2018-09-13T06:55:33.768Z,97.20
2018-09-13T06:58:06.159Z,97.17
2018-09-13T07:00:38.625Z,97.14
2018-09-13T07:03:15.538Z,97.08
2018-09-13T07:05:50.028Z,97.03
2018-09-13T07:08:23.220Z,97.02
2018-09-13T07:10:56.120Z,96.90
2018-09-13T07:13:28.594Z,96.88
2018-09-13T07:16:01.049Z,96.78
2018-09-13T07:18:34.943Z,96.72
2018-09-13T07:21:07.921Z,96.53
2018-09-13T07:23:40.494Z,96.21
2018-09-13T07:26:13.267Z,95.79
2018-09-13T07:28:45.767Z,95.46
2018-09-13T07:31:18.071Z,95.29
2018-09-13T07:33:50.925Z,95.03
2018-09-13T07:36:23.297Z,94.82
2018-09-13T07:38:58.632Z,94.66
2018-09-13T07:41:32.758Z,94.49
2018-09-13T07:44:07.535Z,94.42
2018-09-13T07:46:41.038Z,94.36
2018-09-13T07:49:15.212Z,94.37
2018-09-13T07:51:47.397Z,94.45
2018-09-13T07:54:19.833Z,94.41
2018-09-13T07:56:53.881Z,94.27
2018-09-13T07:59:26.768Z,94.13
2018-09-13T08:02:00.547Z,94.07
2018-09-13T08:04:33.544Z,94.09
2018-09-13T08:07:06.308Z,94.23
2018-09-13T08:09:38.749Z,93.95
2018-09-13T08:12:12.667Z,92.79
2018-09-13T08:14:53.656Z,92.41
2018-09-13T08:17:30.395Z,92.14
2018-09-13T08:20:05.340Z,92.14
2018-09-13T08:22:40.641Z,91.94
2018-09-13T08:25:15.148Z,91.75
2018-09-13T08:27:48.943Z,91.49
2018-09-13T08:30:22.723Z,91.47
2018-09-13T08:32:55.659Z,91.00
2018-09-13T08:35:28.688Z,90.47
2018-09-13T08:38:01.252Z,89.94
2018-09-13T08:40:33.729Z,90.20
2018-09-13T08:43:08.615Z,90.28
2018-09-13T08:45:42.761Z,90.36
2018-09-13T08:48:16.766Z,90.08
2018-09-13T08:50:54.309Z,88.97
2018-09-13T08:53:28.048Z,88.65
2018-09-13T08:56:02.280Z,88.61
2018-09-13T08:58:34.603Z,87.84
2018-09-13T09:01:16.009Z,87.41
2018-09-13T09:03:48.323Z,86.89
2018-09-13T09:06:20.740Z,86.52
2018-09-13T09:08:53.964Z,86.63
2018-09-13T09:11:28.420Z,86.72
2018-09-13T09:14:01.758Z,87.35
2018-09-13T09:16:35.809Z,87.79
2018-09-13T09:19:08.803Z,87.91
2018-09-13T09:21:42.097Z,87.81
2018-09-13T09:24:16.466Z,87.68
2018-09-13T09:26:48.879Z,87.45
2018-09-13T09:29:23.207Z,87.24
2018-09-13T09:31:57.992Z,87.45
2018-09-13T09:34:30.281Z,87.03
2018-09-13T09:37:02.757Z,86.99
2018-09-13T09:39:35.557Z,86.75
2018-09-13T09:42:10.456Z,86.17
2018-09-13T09:44:43.339Z,85.83
2018-09-13T09:47:16.162Z,85.91
2018-09-13T09:49:49.808Z,86.27
2018-09-13T09:52:24.435Z,85.50
2018-09-13T09:54:58.186Z,85.44
2018-09-13T09:57:30.632Z,85.68
2018-09-13T10:00:06.150Z,85.63
2018-09-13T10:02:39.760Z,85.35
2018-09-13T10:05:12.044Z,85.53
2018-09-13T10:07:44.416Z,85.43
2018-09-13T10:10:17.115Z,85.27
2018-09-13T10:12:49.532Z,84.56
2018-09-13T10:15:27.888Z,84.01
2018-09-13T10:18:05.770Z,83.22
2018-09-13T10:20:44.100Z,83.50
2018-09-13T10:23:21.863Z,83.08
2018-09-13T10:26:00.115Z,82.91
2018-09-13T10:28:37.987Z,81.87
2018-09-13T10:31:15.921Z,81.68
2018-09-13T10:33:54.042Z,81.88
2018-09-13T10:36:32.597Z,81.04
2018-09-13T10:39:14.365Z,80.22
2018-09-13T10:41:52.440Z,79.89
2018-09-13T10:44:30.513Z,80.25
2018-09-13T10:47:09.156Z,80.53
2018-09-13T10:49:47.028Z,80.34
2018-09-13T10:52:24.664Z,81.05
2018-09-13T10:54:58.138Z,81.56
2018-09-13T10:57:35.927Z,81.42
2018-09-13T11:00:07.597Z,81.09
2018-09-13T11:02:40.073Z,81.44
2018-09-13T11:05:12.940Z,81.33
2018-09-13T11:07:45.265Z,81.70
2018-09-13T11:10:17.789Z,81.60
2018-09-13T11:13:09.776Z,81.08
2018-09-13T11:15:54.328Z,80.89
2018-09-13T11:18:27.339Z,80.32
2018-09-13T11:21:00.544Z,80.31
2018-09-13T11:23:34.188Z,80.58
2018-09-13T11:26:07.580Z,80.10
2018-09-13T11:28:40.207Z,78.38
2018-09-13T11:31:12.892Z,78.28
2018-09-13T11:33:46.182Z,77.81
2018-09-13T11:36:23.421Z,77.52
2018-09-13T11:38:55.983Z,77.44
2018-09-13T11:41:29.601Z,76.63
2018-09-13T11:44:02.792Z,76.00
2018-09-13T11:46:37.406Z,75.61
2018-09-13T11:49:10.328Z,74.56
2018-09-13T11:51:42.951Z,74.56
2018-09-13T11:54:16.348Z,74.56
2018-09-13T11:56:50.520Z,74.50
2018-09-13T11:59:23.140Z,74.56
2018-09-13T12:01:55.717Z,73.52
2018-09-13T12:04:28.538Z,73.45
2018-09-13T12:07:01.338Z,72.89
2018-09-13T12:09:33.907Z,72.71
2018-09-13T12:12:06.531Z,73.46
2018-09-13T12:14:39.171Z,73.66
2018-09-13T12:17:11.855Z,73.07
2018-09-13T12:19:44.401Z,71.89
2018-09-13T12:22:17.510Z,71.70
2018-09-13T12:24:49.865Z,71.45
2018-09-13T12:27:22.604Z,70.57
2018-09-13T12:29:56.606Z,68.92
2018-09-13T12:32:29.293Z,67.69
2018-09-13T12:35:01.964Z,66.73
2018-09-13T12:37:35.271Z,66.96
2018-09-13T12:40:09.264Z,66.95
2018-09-13T12:42:42.244Z,66.15
2018-09-13T12:45:16.019Z,66.83
2018-09-13T12:47:48.820Z,67.18
2018-09-13T12:50:22.897Z,68.26
2018-09-13T12:52:55.708Z,69.21
2018-09-13T12:55:36.334Z,69.61
2018-09-13T12:58:09.000Z,69.98
2018-09-13T13:00:42.120Z,70.30
2018-09-13T13:03:16.888Z,69.50
2018-09-13T13:05:50.376Z,69.65
2018-09-13T13:08:24.487Z,69.38
2018-09-13T13:10:57.161Z,68.59
2018-09-13T13:13:30.026Z,67.27
2018-09-13T13:16:05.882Z,67.01
2018-09-13T13:18:40.445Z,66.74
2018-09-13T13:21:13.017Z,65.79
2018-09-13T13:23:48.238Z,65.98
2018-09-13T13:26:20.785Z,66.19
2018-09-13T13:28:53.632Z,64.75
2018-09-13T13:31:27.537Z,64.30
2018-09-13T13:34:00.157Z,62.72
2018-09-13T13:36:33.336Z,62.72
2018-09-13T13:39:10.212Z,61.80
2018-09-13T13:41:43.266Z,58.32
2018-09-13T13:44:16.293Z,58.43
2018-09-13T13:46:50.408Z,57.40
2018-09-13T13:49:23.051Z,55.86
2018-09-13T13:51:55.960Z,56.79
2018-09-13T13:54:28.560Z,56.86
2018-09-13T13:57:01.179Z,54.69
2018-09-13T13:59:34.983Z,54.90
2018-09-13T14:02:08.281Z,55.11
2018-09-13T14:04:41.092Z,53.77
2018-09-13T14:07:14.642Z,53.99
2018-09-13T14:09:47.409Z,53.39
2018-09-13T14:12:20.019Z,54.33
2018-09-13T14:14:53.224Z,54.52
2018-09-13T14:17:25.944Z,54.76
2018-09-13T14:19:58.658Z,55.63
2018-09-13T14:22:37.198Z,55.49
2018-09-13T14:25:12.322Z,54.84
2018-09-13T14:27:46.381Z,54.88
2018-09-13T14:30:19.063Z,55.26
2018-09-13T14:32:51.543Z,53.95
2018-09-13T14:35:24.589Z,54.40
2018-09-13T14:37:57.142Z,53.88
2018-09-13T14:40:30.595Z,54.10
2018-09-13T14:43:03.524Z,53.39
2018-09-13T14:45:36.548Z,53.79
2018-09-13T14:48:09.219Z,54.31
2018-09-13T14:50:41.899Z,54.60
2018-09-13T14:53:14.528Z,54.67
2018-09-13T14:55:49.113Z,54.79
2018-09-13T14:58:21.853Z,55.18
2018-09-13T15:00:54.421Z,54.81
2018-09-13T15:03:27.244Z,55.25
2018-09-13T15:05:59.988Z,55.46
2018-09-13T15:08:32.634Z,56.21
2018-09-13T15:11:05.644Z,56.37
2018-09-13T15:13:38.353Z,56.50
2018-09-13T15:16:11.349Z,55.98
2018-09-13T15:18:44.768Z,56.21
2018-09-13T15:21:17.475Z,56.45
2018-09-13T15:23:50.056Z,56.78
2018-09-13T15:26:22.736Z,57.05
2018-09-13T15:28:55.267Z,57.30
2018-09-13T15:31:28.243Z,57.77
2018-09-13T15:34:00.994Z,57.97
2018-09-13T15:36:33.689Z,58.13
2018-09-13T15:39:12.190Z,58.30
2018-09-13T15:41:44.873Z,58.18
2018-09-13T15:44:17.877Z,57.79
2018-09-13T15:46:52.516Z,57.34
2018-09-13T15:49:25.076Z,57.26
2018-09-13T15:51:57.702Z,57.41
2018-09-13T15:54:31.188Z,57.38
2018-09-13T15:57:03.836Z,57.38
2018-09-13T15:59:36.675Z,56.97
2018-09-13T16:02:11.907Z,56.52
2018-09-13T16:04:44.301Z,56.63
2018-09-13T16:07:17.267Z,56.49
2018-09-13T16:09:50.488Z,56.09
2018-09-13T16:12:23.779Z,55.92
2018-09-13T16:14:56.565Z,56.27
2018-09-13T16:17:32.073Z,55.86
2018-09-13T16:20:04.934Z,56.02
2018-09-13T16:22:37.520Z,56.20
2018-09-13T16:25:12.972Z,56.22
2018-09-13T16:27:45.613Z,56.56
2018-09-13T16:30:18.070Z,56.72
2018-09-13T16:32:51.549Z,56.93
2018-09-13T16:35:25.296Z,57.27
2018-09-13T16:38:03.650Z,57.99
2018-09-13T16:40:45.068Z,59.04
2018-09-13T16:43:37.452Z,58.77
2018-09-13T16:46:18.067Z,58.92
2018-09-13T16:48:50.723Z,58.21
2018-09-13T16:51:23.713Z,57.94
2018-09-13T16:53:57.013Z,58.38
2018-09-13T16:56:29.736Z,58.68
2018-09-13T16:59:02.832Z,58.60
2018-09-13T17:01:35.435Z,58.89
2018-09-13T17:04:09.321Z,59.21
2018-09-13T17:06:42.629Z,59.28
2018-09-13T17:09:15.446Z,59.51
2018-09-13T17:11:48.469Z,59.99
2018-09-13T17:14:22.570Z,60.29
2018-09-13T17:16:55.303Z,60.80
2018-09-13T17:19:46.336Z,61.29
2018-09-13T17:22:20.649Z,61.75
2018-09-13T17:27:27.722Z,63.04
2018-09-13T17:30:03.006Z,63.06
2018-09-13T17:32:35.903Z,64.08
2018-09-13T17:35:09.166Z,64.46
2018-09-13T17:37:41.888Z,64.54
2018-09-13T17:40:14.932Z,64.43
2018-09-13T17:42:48.724Z,64.50
2018-09-13T17:45:22.992Z,64.66
2018-09-13T17:47:55.880Z,65.03
2018-09-13T17:50:28.898Z,64.97
2018-09-13T17:53:01.847Z,66.32
2018-09-13T17:55:35.782Z,66.49
2018-09-13T17:58:11.931Z,66.94
2018-09-13T18:00:45.080Z,67.52
2018-09-13T18:03:19.157Z,68.47
2018-09-13T18:05:52.275Z,70.65
2018-09-13T18:08:24.923Z,72.20
2018-09-13T18:10:58.278Z,72.79
2018-09-13T18:13:30.911Z,73.80
2018-09-13T18:16:03.645Z,74.42
2018-09-13T18:18:36.879Z,74.46
2018-09-13T18:21:09.827Z,74.83
2018-09-13T18:23:43.392Z,75.21
2018-09-13T18:26:16.182Z,75.87
2018-09-13T18:28:48.769Z,76.15
2018-09-13T18:31:23.037Z,76.88
2018-09-13T18:33:56.184Z,77.40
2018-09-13T18:36:29.833Z,77.61
2018-09-13T18:39:04.022Z,79.87
2018-09-13T18:41:40.022Z,79.65
2018-09-13T18:44:12.692Z,81.14
2018-09-13T18:46:47.685Z,80.92
2018-09-13T18:49:24.730Z,81.30
2018-09-13T18:51:59.889Z,82.60
2018-09-13T18:54:34.549Z,82.15
2018-09-13T18:57:08.577Z,82.37
2018-09-13T18:59:43.275Z,82.65
2018-09-13T19:02:20.063Z,83.84
2018-09-13T19:04:56.729Z,83.75
2018-09-13T19:07:30.872Z,83.60
2018-09-13T19:10:04.028Z,83.55
2018-09-13T19:12:38.604Z,83.95
2018-09-13T19:15:21.297Z,84.29
2018-09-13T19:17:56.136Z,84.93
2018-09-13T19:20:29.112Z,85.02
2018-09-13T19:23:01.819Z,85.09
2018-09-13T19:25:35.276Z,85.40
2018-09-13T19:28:12.290Z,85.68
2018-09-13T19:30:45.318Z,85.87
2018-09-13T19:33:17.936Z,86.07
2018-09-13T19:35:52.961Z,86.55
2018-09-13T19:38:27.290Z,87.29
2018-09-13T19:41:00.486Z,87.42
2018-09-13T19:43:36.376Z,87.42
2018-09-13T19:46:11.006Z,87.80
2018-09-13T19:48:48.284Z,87.59
2018-09-13T19:51:20.898Z,87.30
2018-09-13T19:53:57.366Z,88.00
2018-09-13T19:56:30.574Z,89.29
2018-09-13T19:59:05.519Z,89.47
2018-09-13T20:01:39.645Z,89.23
2018-09-13T20:04:14.363Z,88.99
2018-09-13T20:06:47.185Z,88.81
2018-09-13T20:09:21.710Z,88.79
2018-09-13T20:11:55.010Z,89.08
2018-09-13T20:14:29.034Z,90.03
2018-09-13T20:17:02.149Z,90.42
2018-09-13T20:19:34.824Z,90.78
2018-09-13T20:22:11.004Z,90.89
2018-09-13T20:24:47.980Z,91.33
2018-09-13T20:27:22.764Z,91.28
2018-09-13T20:30:00.725Z,91.52
2018-09-13T20:32:37.963Z,92.06
2018-09-13T20:35:13.679Z,92.34
2018-09-13T20:37:48.736Z,92.81
2018-09-13T20:40:26.352Z,93.02
2018-09-13T20:42:58.955Z,92.98
2018-09-13T20:45:32.090Z,92.90
2018-09-13T20:48:07.029Z,92.83
2018-09-13T20:50:39.663Z,92.98
2018-09-13T20:53:15.494Z,93.11
2018-09-13T20:55:48.011Z,93.24
2018-09-13T20:58:21.432Z,93.35
2018-09-13T21:00:55.473Z,93.51
2018-09-13T21:03:30.836Z,93.52
2018-09-13T21:06:05.966Z,93.56
2018-09-13T21:08:39.129Z,93.56
2018-09-13T21:11:13.954Z,93.72
2018-09-13T21:13:48.040Z,93.87
2018-09-13T21:16:22.262Z,93.99
2018-09-13T21:18:55.664Z,94.17
2018-09-13T21:21:29.787Z,94.28
2018-09-13T21:24:03.661Z,94.35
2018-09-13T21:26:36.231Z,94.33
2018-09-13T21:29:08.762Z,94.31
2018-09-13T21:31:41.878Z,94.50
2018-09-13T21:34:14.471Z,94.46
2018-09-13T21:36:47.077Z,94.36
2018-09-13T21:39:21.729Z,94.30
2018-09-13T21:41:55.021Z,94.33
2018-09-13T21:44:28.999Z,94.37
2018-09-13T21:47:04.808Z,94.57
2018-09-13T21:49:43.316Z,94.70
2018-09-13T21:52:16.713Z,94.86
2018-09-13T21:54:52.169Z,94.88
2018-09-13T21:57:25.637Z,95.12
2018-09-13T21:59:58.311Z,95.14
2018-09-13T22:02:33.447Z,94.77
2018-09-13T22:05:07.431Z,94.56
2018-09-13T22:07:40.134Z,94.64
2018-09-13T22:10:13.347Z,94.99
2018-09-13T22:12:46.032Z,95.09
2018-09-13T22:15:19.516Z,95.13
2018-09-13T22:17:52.390Z,95.31
2018-09-13T22:20:25.139Z,95.37
2018-09-13T22:22:57.724Z,95.12
2018-09-13T22:25:31.597Z,95.05
2018-09-13T22:28:04.262Z,95.20
2018-09-13T22:30:37.917Z,95.16
2018-09-13T22:33:18.783Z,95.29
2018-09-13T22:35:52.908Z,95.29
2018-09-13T22:38:25.512Z,95.66
2018-09-13T22:41:00.180Z,95.43
2018-09-13T22:43:40.645Z,95.26
2018-09-13T22:46:14.028Z,95.25
2018-09-13T22:48:47.679Z,95.43
2018-09-13T22:51:21.640Z,95.50
2018-09-13T22:53:55.007Z,95.62
2018-09-13T22:56:29.117Z,95.62
2018-09-13T22:59:02.556Z,95.55
2018-09-13T23:01:35.942Z,95.64
2018-09-13T23:04:16.430Z,95.78
2018-09-13T23:06:54.661Z,95.88
2018-09-13T23:13:53.227Z,95.74
2018-09-13T23:16:26.232Z,95.97
2018-09-13T23:19:01.028Z,95.87
2018-09-13T23:21:33.815Z,95.62
2018-09-13T23:24:06.389Z,95.42
2018-09-13T23:26:40.352Z,95.16
2018-09-13T23:29:13.071Z,94.91
2018-09-13T23:31:45.820Z,94.60
2018-09-13T23:34:18.768Z,94.76
2018-09-13T23:36:51.313Z,94.97
2018-09-13T23:39:24.813Z,95.14
2018-09-13T23:41:57.671Z,95.51
2018-09-13T23:44:31.093Z,95.53
2018-09-13T23:47:03.707Z,95.67
2018-09-13T23:49:36.724Z,95.95
2018-09-13T23:52:11.147Z,96.21
2018-09-13T23:54:44.500Z,96.23
2018-09-13T23:57:20.173Z,96.35
2018-09-13T23:59:53.480Z,96.16
